createdAt,value
2023-04-12T00:00:53.087Z,8.66
2023-04-12T00:03:22.318Z,8.67
2023-04-12T00:05:54.679Z,8.64
2023-04-12T00:08:26.298Z,8.52
2023-04-12T00:10:54.192Z,8.57
2023-04-12T00:13:23.412Z,8.52
2023-04-12T00:15:51.354Z,8.56
2023-04-12T00:18:19.263Z,8.56
2023-04-12T00:20:47.100Z,8.56
2023-04-12T00:23:15.434Z,8.53
2023-04-12T00:25:43.275Z,8.42
2023-04-12T00:28:11.157Z,8.39
2023-04-12T00:30:41.261Z,8.35
2023-04-12T00:33:09.428Z,8.32
2023-04-12T00:35:37.422Z,8.37
2023-04-12T00:38:10.258Z,8.34
2023-04-12T00:40:42.528Z,8.35
2023-04-12T00:43:18.384Z,8.33
2023-04-12T00:45:48.461Z,8.33
2023-04-12T00:48:16.771Z,8.27
2023-04-12T00:50:47.682Z,8.20
2023-04-12T00:53:15.975Z,8.25
2023-04-12T00:55:46.050Z,8.26
2023-04-12T00:58:15.954Z,8.24
2023-04-12T01:00:50.486Z,8.20
2023-04-12T01:03:22.952Z,8.20
2023-04-12T01:06:05.255Z,8.09
2023-04-12T01:08:45.359Z,8.14
2023-04-12T01:11:19.520Z,8.12
2023-04-12T01:13:56.970Z,8.11
2023-04-12T01:16:31.844Z,8.20
2023-04-12T01:19:06.364Z,8.15
2023-04-12T01:21:46.389Z,8.18
2023-04-12T01:24:29.077Z,8.13
2023-04-12T01:27:00.712Z,8.14
2023-04-12T01:29:31.317Z,8.12
2023-04-12T01:32:02.201Z,8.08
2023-04-12T01:34:33.423Z,8.19
2023-04-12T01:37:03.487Z,8.16
2023-04-12T01:39:32.693Z,8.08
2023-04-12T01:42:00.851Z,8.09
2023-04-12T01:44:30.944Z,8.03
2023-04-12T01:46:58.839Z,7.97
2023-04-12T01:49:34.740Z,7.96
2023-04-12T01:52:05.642Z,7.81
2023-04-12T01:54:39.607Z,7.90
2023-04-12T01:57:08.940Z,7.84
2023-04-12T01:59:41.898Z,7.76
2023-04-12T02:02:12.049Z,7.82
2023-04-12T02:04:40.921Z,7.68
2023-04-12T02:07:09.499Z,7.72
2023-04-12T02:09:38.574Z,7.72
2023-04-12T02:12:07.287Z,7.66
2023-04-12T02:14:37.181Z,7.61
2023-04-12T02:17:08.530Z,7.71
2023-04-12T02:19:36.763Z,7.52
2023-04-12T02:22:05.752Z,7.44
2023-04-12T02:24:33.657Z,7.38
2023-04-12T02:27:01.808Z,7.48
2023-04-12T02:29:31.261Z,7.49
2023-04-12T02:31:59.154Z,7.40
2023-04-12T02:34:34.159Z,7.34
2023-04-12T02:37:13.690Z,7.31
2023-04-12T02:39:41.969Z,7.35
2023-04-12T02:42:10.586Z,7.40
2023-04-12T02:44:39.857Z,7.33
2023-04-12T02:47:13.441Z,7.37
2023-04-12T02:49:45.822Z,7.36
2023-04-12T02:52:16.494Z,7.28
2023-04-12T02:54:59.819Z,7.24
2023-04-12T02:57:27.677Z,7.10
2023-04-12T02:59:55.929Z,7.25
2023-04-12T03:02:27.114Z,7.17
2023-04-12T03:05:03.518Z,7.21
2023-04-12T03:07:40.313Z,7.31
2023-04-12T03:10:11.978Z,7.25
2023-04-12T03:12:45.466Z,7.18
2023-04-12T03:15:18.810Z,7.18
2023-04-12T03:17:49.581Z,7.15
2023-04-12T03:20:21.383Z,7.05
2023-04-12T03:22:58.111Z,7.10
2023-04-12T03:25:26.030Z,6.99
2023-04-12T03:27:58.358Z,7.00
2023-04-12T03:30:36.967Z,7.03
2023-04-12T03:33:05.034Z,7.14
2023-04-12T03:35:35.699Z,7.03
2023-04-12T03:38:04.033Z,6.94
2023-04-12T03:40:32.162Z,6.96
2023-04-12T03:43:01.868Z,7.07
2023-04-12T03:45:31.334Z,7.07
2023-04-12T03:48:02.408Z,6.87
2023-04-12T03:50:44.053Z,6.95
2023-04-12T03:53:17.410Z,7.06
2023-04-12T03:55:47.447Z,7.12
2023-04-12T03:58:16.323Z,7.01
2023-04-12T04:00:46.684Z,6.96
2023-04-12T04:03:16.054Z,7.03
2023-04-12T04:05:51.514Z,7.03
2023-04-12T04:08:21.863Z,6.99
2023-04-12T04:10:53.689Z,6.95
2023-04-12T04:13:26.068Z,6.89
2023-04-12T04:16:03.399Z,6.96
2023-04-12T04:18:31.429Z,6.86
2023-04-12T04:21:01.381Z,6.92
2023-04-12T04:23:38.984Z,6.87
2023-04-12T04:26:10.141Z,7.02
2023-04-12T04:28:45.158Z,6.97
2023-04-12T04:31:18.267Z,6.87
2023-04-12T04:33:50.869Z,6.95
2023-04-12T04:36:22.714Z,6.86
2023-04-12T04:38:54.900Z,6.96
2023-04-12T04:41:39.453Z,7.05
2023-04-12T04:44:10.440Z,7.09
2023-04-12T04:46:44.141Z,7.08
2023-04-12T04:49:12.079Z,6.88
2023-04-12T04:51:41.327Z,7.11
2023-04-12T04:54:13.791Z,7.19
2023-04-12T04:56:43.148Z,7.05
2023-04-12T04:59:13.307Z,7.21
2023-04-12T05:01:41.604Z,7.22
2023-04-12T05:04:10.026Z,7.19
2023-04-12T05:06:38.081Z,7.27
2023-04-12T05:09:10.137Z,7.18
2023-04-12T05:11:44.385Z,7.25
2023-04-12T05:14:13.421Z,7.31
2023-04-12T05:16:41.938Z,7.45
2023-04-12T05:19:09.833Z,7.44
2023-04-12T05:21:37.762Z,7.53
2023-04-12T05:24:05.928Z,7.33
2023-04-12T05:26:37.319Z,7.44
2023-04-12T05:29:10.841Z,7.55
2023-04-12T05:31:38.711Z,7.71
2023-04-12T05:34:10.844Z,7.81
2023-04-12T05:36:45.333Z,7.33
2023-04-12T05:39:13.187Z,7.64
2023-04-12T05:41:42.408Z,7.79
2023-04-12T05:44:10.903Z,7.94
2023-04-12T05:46:39.171Z,8.09
2023-04-12T05:49:07.871Z,8.12
2023-04-12T05:51:41.452Z,8.25
2023-04-12T05:54:20.960Z,8.84
2023-04-12T05:56:51.891Z,9.57
2023-04-12T05:59:19.818Z,10.17
2023-04-12T06:01:47.869Z,10.78
2023-04-12T06:04:18.566Z,10.93
2023-04-12T06:06:47.477Z,10.77
2023-04-12T06:09:15.914Z,11.54
2023-04-12T06:11:44.560Z,10.94
2023-04-12T06:14:13.795Z,10.94
2023-04-12T06:16:42.143Z,10.72
2023-04-12T06:19:10.985Z,10.84
2023-04-12T06:21:38.856Z,10.13
2023-04-12T06:24:10.871Z,10.82
2023-04-12T06:26:40.209Z,11.09
2023-04-12T06:29:09.762Z,11.27
2023-04-12T06:31:39.331Z,11.52
2023-04-12T06:34:08.718Z,11.67
2023-04-12T06:36:41.488Z,11.56
2023-04-12T06:39:09.566Z,12.01
2023-04-12T06:41:37.407Z,12.77
2023-04-12T06:44:05.210Z,12.79
2023-04-12T06:46:33.106Z,12.52
2023-04-12T06:49:02.407Z,12.41
2023-04-12T06:51:30.242Z,12.59
2023-04-12T06:53:58.385Z,12.69
2023-04-12T06:56:26.333Z,12.39
2023-04-12T06:58:54.240Z,12.83
2023-04-12T07:01:22.350Z,12.54
2023-04-12T07:03:50.468Z,13.01
2023-04-12T07:06:25.634Z,13.31
2023-04-12T07:08:54.665Z,13.80
2023-04-12T07:11:23.853Z,13.07
2023-04-12T07:13:52.319Z,12.77
2023-04-12T07:16:20.345Z,12.72
2023-04-12T07:18:48.830Z,13.04
2023-04-12T07:21:17.758Z,13.63
2023-04-12T07:23:51.083Z,13.81
2023-04-12T07:26:19.027Z,13.93
2023-04-12T07:28:46.870Z,13.95
2023-04-12T07:31:14.808Z,13.62
2023-04-12T07:33:43.433Z,13.34
2023-04-12T07:36:12.333Z,13.36
2023-04-12T07:38:40.493Z,13.99
2023-04-12T07:41:09.839Z,14.74
2023-04-12T07:43:37.666Z,14.23
2023-04-12T07:46:08.680Z,14.91
2023-04-12T07:48:36.748Z,14.99
2023-04-12T07:51:05.308Z,14.11
2023-04-12T07:53:33.339Z,14.06
2023-04-12T07:56:01.296Z,15.30
2023-04-12T07:58:30.682Z,15.11
2023-04-12T08:01:00.890Z,15.94
2023-04-12T08:03:29.346Z,15.33
2023-04-12T08:05:57.345Z,15.21
2023-04-12T08:08:25.251Z,14.64
2023-04-12T08:10:53.711Z,14.58
2023-04-12T08:13:21.769Z,14.37
2023-04-12T08:15:51.084Z,14.60
2023-04-12T08:18:19.383Z,14.08
2023-04-12T08:20:49.171Z,14.92
2023-04-12T08:23:17.464Z,15.52
2023-04-12T08:25:45.284Z,16.42
2023-04-12T08:28:13.277Z,15.30
2023-04-12T08:30:41.238Z,14.68
2023-04-12T08:33:10.592Z,15.26
2023-04-12T08:35:39.880Z,14.78
2023-04-12T08:38:08.159Z,14.81
2023-04-12T08:40:36.848Z,15.59
2023-04-12T08:43:12.125Z,15.59
2023-04-12T08:45:40.171Z,15.24
2023-04-12T08:48:08.387Z,15.43
2023-04-12T08:50:37.736Z,15.62
2023-04-12T08:53:05.608Z,16.67
2023-04-12T08:55:33.492Z,16.82
2023-04-12T08:58:03.971Z,16.63
2023-04-12T09:00:32.086Z,16.20
2023-04-12T09:03:00.109Z,16.49
2023-04-12T09:05:30.197Z,16.79
2023-04-12T09:07:59.687Z,17.13
2023-04-12T09:10:36.591Z,16.89
2023-04-12T09:13:05.196Z,15.66
2023-04-12T09:15:34.464Z,16.78
2023-04-12T09:18:08.520Z,16.71
2023-04-12T09:20:37.114Z,16.96
2023-04-12T09:23:20.617Z,16.78
2023-04-12T09:25:51.883Z,17.89
2023-04-12T09:28:25.747Z,18.45
2023-04-12T09:30:54.652Z,17.70
2023-04-12T09:33:24.004Z,18.16
2023-04-12T09:35:52.175Z,18.15
2023-04-12T09:38:21.413Z,18.73
2023-04-12T09:40:50.137Z,18.65
2023-04-12T09:43:18.314Z,18.94
2023-04-12T09:45:46.307Z,19.14
2023-04-12T09:48:21.593Z,18.71
2023-04-12T09:50:49.615Z,17.31
2023-04-12T09:53:19.179Z,18.80
2023-04-12T09:55:51.173Z,18.46
2023-04-12T09:58:20.609Z,19.34
2023-04-12T10:00:49.363Z,19.09
2023-04-12T10:03:17.437Z,18.79
2023-04-12T10:05:45.532Z,19.58
2023-04-12T10:08:15.183Z,18.65
2023-04-12T10:10:46.084Z,19.38
2023-04-12T10:13:16.735Z,19.46
2023-04-12T10:15:47.235Z,20.80
2023-04-12T10:18:17.224Z,20.33
2023-04-12T10:20:47.026Z,20.14
2023-04-12T10:23:19.079Z,19.67
2023-04-12T10:25:49.411Z,20.46
2023-04-12T10:28:19.793Z,20.84
2023-04-12T10:30:49.586Z,20.28
2023-04-12T10:33:19.287Z,21.08
2023-04-12T10:35:56.372Z,20.59
2023-04-12T10:38:26.870Z,19.60
2023-04-12T10:41:25.020Z,19.42
2023-04-12T10:44:25.125Z,20.28
2023-04-12T10:46:53.156Z,20.43
2023-04-12T10:49:21.380Z,21.37
2023-04-12T10:52:15.944Z,19.75
2023-04-12T10:54:44.028Z,21.17
2023-04-12T10:57:44.234Z,19.82
2023-04-12T11:00:14.949Z,18.92
2023-04-12T11:03:05.834Z,20.05
2023-04-12T11:05:58.808Z,20.61
2023-04-12T11:08:47.466Z,20.05
2023-04-12T11:11:23.870Z,19.95
2023-04-12T11:13:57.474Z,21.42
2023-04-12T11:16:26.813Z,21.52
2023-04-12T11:18:55.510Z,20.93
2023-04-12T11:21:23.937Z,21.10
2023-04-12T11:23:54.595Z,20.98
2023-04-12T11:26:22.679Z,19.97
2023-04-12T11:28:53.253Z,20.39
2023-04-12T11:31:23.109Z,20.51
2023-04-12T11:33:52.636Z,19.29
2023-04-12T11:36:20.552Z,19.71
2023-04-12T11:38:50.255Z,20.26
2023-04-12T11:41:19.371Z,19.61
2023-04-12T11:43:48.358Z,19.60
2023-04-12T11:46:18.262Z,18.75
2023-04-12T11:48:47.083Z,20.13
2023-04-12T11:51:24.819Z,20.61
2023-04-12T11:53:57.254Z,19.77
2023-04-12T11:56:25.652Z,18.63
2023-04-12T11:58:53.754Z,18.81
2023-04-12T12:01:23.309Z,18.75
2023-04-12T12:03:51.649Z,18.52
2023-04-12T12:06:22.708Z,18.67
2023-04-12T12:08:51.595Z,18.94
2023-04-12T12:11:21.428Z,19.30
2023-04-12T12:13:50.917Z,19.07
2023-04-12T12:16:19.817Z,18.70
2023-04-12T12:18:52.514Z,18.01
2023-04-12T12:21:22.526Z,17.96
2023-04-12T12:23:50.856Z,18.47
2023-04-12T12:26:22.814Z,18.14
2023-04-12T12:28:52.360Z,18.81
2023-04-12T12:31:21.509Z,18.47
2023-04-12T12:33:49.801Z,18.79
2023-04-12T12:36:19.718Z,19.27
2023-04-12T12:38:51.322Z,18.57
2023-04-12T12:41:20.964Z,19.07
2023-04-12T12:43:49.609Z,19.31
2023-04-12T12:46:19.042Z,18.77
2023-04-12T12:48:48.414Z,18.12
2023-04-12T12:51:17.975Z,18.60
2023-04-12T12:53:46.191Z,18.27
2023-04-12T12:56:17.110Z,18.85
2023-04-12T12:58:45.319Z,18.50
2023-04-12T13:01:13.193Z,18.83
2023-04-12T13:03:41.287Z,19.26
2023-04-12T13:06:10.077Z,18.99
2023-04-12T13:08:38.207Z,18.79
2023-04-12T13:11:06.579Z,17.89
2023-04-12T13:13:36.359Z,18.35
2023-04-12T13:16:04.386Z,18.38
2023-04-12T13:18:32.367Z,19.04
2023-04-12T13:21:00.562Z,18.57
2023-04-12T13:23:28.516Z,18.77
2023-04-12T13:25:56.341Z,18.20
2023-04-12T13:28:24.184Z,18.54
2023-04-12T13:30:53.404Z,18.96
2023-04-12T13:33:22.325Z,18.71
2023-04-12T13:35:50.596Z,18.03
2023-04-12T13:38:18.602Z,18.49
2023-04-12T13:40:46.501Z,18.32
2023-04-12T13:43:14.401Z,18.09
2023-04-12T13:45:42.394Z,18.56
2023-04-12T13:48:11.786Z,18.03
2023-04-12T13:50:39.662Z,18.54
2023-04-12T13:53:07.540Z,18.71
2023-04-12T13:55:35.453Z,18.46
2023-04-12T13:58:03.301Z,17.82
2023-04-12T14:00:31.242Z,18.49
2023-04-12T14:02:59.304Z,18.21
2023-04-12T14:05:28.710Z,18.48
2023-04-12T14:07:56.738Z,18.48
2023-04-12T14:10:27.628Z,18.23
2023-04-12T14:12:55.596Z,18.07
2023-04-12T14:15:23.606Z,18.04
2023-04-12T14:17:51.778Z,17.58
2023-04-12T14:20:20.302Z,17.84
2023-04-12T14:22:49.718Z,17.54
2023-04-12T14:25:17.827Z,17.97
2023-04-12T14:27:45.952Z,17.93
2023-04-12T14:30:15.474Z,18.00
2023-04-12T14:32:45.937Z,17.96
2023-04-12T14:35:15.263Z,17.94
2023-04-12T14:37:43.273Z,17.29
2023-04-12T14:40:12.642Z,17.84
2023-04-12T14:42:40.618Z,17.56
2023-04-12T14:45:09.986Z,17.09
2023-04-12T14:47:38.139Z,17.57
2023-04-12T14:50:07.047Z,17.24
2023-04-12T14:52:35.225Z,17.27
2023-04-12T14:55:03.931Z,17.21
2023-04-12T14:57:34.981Z,16.78
2023-04-12T15:00:04.392Z,16.67
2023-04-12T15:02:32.451Z,17.18
2023-04-12T15:05:04.197Z,17.40
2023-04-12T15:07:32.225Z,17.00
2023-04-12T15:10:00.689Z,17.01
2023-04-12T15:12:28.916Z,16.80
2023-04-12T15:14:58.100Z,17.09
2023-04-12T15:17:26.086Z,16.70
2023-04-12T15:19:53.922Z,16.13
2023-04-12T15:22:22.523Z,16.48
2023-04-12T15:24:50.480Z,16.47
2023-04-12T15:27:18.326Z,16.09
2023-04-12T15:29:46.338Z,16.20
2023-04-12T15:32:15.883Z,16.40
2023-04-12T15:34:43.923Z,15.99
2023-04-12T15:37:11.912Z,15.68
2023-04-12T15:39:39.965Z,15.63
2023-04-12T15:42:08.215Z,15.34
2023-04-12T15:44:36.155Z,15.38
2023-04-12T15:47:11.632Z,15.62
2023-04-12T15:49:41.616Z,15.48
2023-04-12T15:52:09.439Z,15.87
2023-04-12T15:54:43.545Z,15.82
2023-04-12T15:57:12.147Z,15.94
2023-04-12T15:59:41.957Z,15.83
2023-04-12T16:02:10.469Z,15.70
2023-04-12T16:04:39.388Z,15.88
2023-04-12T16:07:09.135Z,15.64
2023-04-12T16:09:39.773Z,15.59
2023-04-12T16:12:07.994Z,15.28
2023-04-12T16:14:36.775Z,15.37
2023-04-12T16:17:04.925Z,14.93
2023-04-12T16:19:33.454Z,15.59
2023-04-12T16:22:01.736Z,15.52
2023-04-12T16:24:31.039Z,15.65
2023-04-12T16:26:59.254Z,15.32
2023-04-12T16:29:27.082Z,15.09
2023-04-12T16:31:55.157Z,14.96
2023-04-12T16:34:23.285Z,15.30
2023-04-12T16:36:52.912Z,15.35
2023-04-12T16:39:20.778Z,15.13
2023-04-12T16:41:49.988Z,14.92
2023-04-12T16:44:18.940Z,15.02
2023-04-12T16:46:47.729Z,15.10
2023-04-12T16:49:17.585Z,15.16
2023-04-12T16:51:47.010Z,15.06
2023-04-12T16:54:14.922Z,15.16
2023-04-12T16:56:42.758Z,15.29
2023-04-12T16:59:12.092Z,14.91
2023-04-12T17:01:40.411Z,15.13
2023-04-12T17:04:08.599Z,15.15
2023-04-12T17:06:36.724Z,14.71
2023-04-12T17:09:05.096Z,14.81
2023-04-12T17:11:33.228Z,14.70
2023-04-12T17:14:01.089Z,14.98
2023-04-12T17:16:30.552Z,14.93
2023-04-12T17:18:58.635Z,14.89
2023-04-12T17:21:26.942Z,14.87
2023-04-12T17:23:56.071Z,14.79
2023-04-12T17:26:26.465Z,14.19
2023-04-12T17:28:54.633Z,14.50
2023-04-12T17:31:22.582Z,14.75
2023-04-12T17:33:51.860Z,14.81
2023-04-12T17:36:19.735Z,14.65
2023-04-12T17:38:47.588Z,14.58
2023-04-12T17:41:15.754Z,14.41
2023-04-12T17:43:43.536Z,14.36
2023-04-12T17:46:11.378Z,14.58
2023-04-12T17:48:40.090Z,14.73
2023-04-12T17:51:09.828Z,14.50
2023-04-12T17:53:37.726Z,14.50
2023-04-12T17:56:05.935Z,14.68
2023-04-12T17:58:34.333Z,14.53
2023-04-12T18:01:02.354Z,14.47
2023-04-12T18:03:31.486Z,14.34
2023-04-12T18:06:00.684Z,14.63
2023-04-12T18:08:29.861Z,14.26
2023-04-12T18:10:57.763Z,14.38
2023-04-12T18:13:25.740Z,14.42
2023-04-12T18:15:53.601Z,14.22
2023-04-12T18:18:21.442Z,14.16
2023-04-12T18:20:49.307Z,13.69
2023-04-12T18:23:17.232Z,14.27
2023-04-12T18:25:46.466Z,14.41
2023-04-12T18:28:14.850Z,14.49
2023-04-12T18:30:42.704Z,14.46
2023-04-12T18:33:10.768Z,14.13
2023-04-12T18:35:39.153Z,14.03
2023-04-12T18:38:07.546Z,14.06
2023-04-12T18:40:37.828Z,14.30
2023-04-12T18:43:08.006Z,14.27
2023-04-12T18:45:40.087Z,13.88
2023-04-12T18:48:08.608Z,14.07
2023-04-12T18:50:39.286Z,13.92
2023-04-12T18:53:07.887Z,14.03
2023-04-12T18:55:35.802Z,13.86
2023-04-12T18:58:03.795Z,14.17
2023-04-12T19:00:33.722Z,14.02
2023-04-12T19:03:02.075Z,13.80
2023-04-12T19:05:30.341Z,13.93
2023-04-12T19:07:58.170Z,13.74
2023-04-12T19:10:30.475Z,13.67
2023-04-12T19:12:58.460Z,14.22
2023-04-12T19:15:26.268Z,14.04
2023-04-12T19:17:55.878Z,13.56
2023-04-12T19:20:23.747Z,13.63
2023-04-12T19:22:51.585Z,13.95
2023-04-12T19:25:20.162Z,14.18
2023-04-12T19:27:48.096Z,13.66
2023-04-12T19:30:17.174Z,13.31
2023-04-12T19:32:45.050Z,13.78
2023-04-12T19:35:14.447Z,13.91
2023-04-12T19:37:42.595Z,13.94
2023-04-12T19:40:13.469Z,13.90
2023-04-12T19:42:42.367Z,14.03
2023-04-12T19:45:10.745Z,13.74
2023-04-12T19:47:44.679Z,13.91
2023-04-12T19:50:15.437Z,14.00
2023-04-12T19:52:43.824Z,13.79
2023-04-12T19:55:12.143Z,13.61
2023-04-12T19:57:40.888Z,13.71
2023-04-12T20:00:12.792Z,13.63
2023-04-12T20:02:40.892Z,13.56
2023-04-12T20:05:09.239Z,13.40
2023-04-12T20:07:40.126Z,13.21
2023-04-12T20:10:10.346Z,13.31
2023-04-12T20:12:39.103Z,13.07
2023-04-12T20:15:09.098Z,13.13
2023-04-12T20:17:37.615Z,13.44
2023-04-12T20:20:08.715Z,13.00
2023-04-12T20:22:36.838Z,13.06
2023-04-12T20:25:06.788Z,13.09
2023-04-12T20:27:36.561Z,12.99
2023-04-12T20:30:05.155Z,12.83
2023-04-12T20:32:34.333Z,12.79
2023-04-12T20:35:03.769Z,12.78
2023-04-12T20:37:32.606Z,13.15
2023-04-12T20:40:00.873Z,13.22
2023-04-12T20:42:30.273Z,13.10
2023-04-12T20:44:58.271Z,12.82
2023-04-12T20:47:26.096Z,13.02
2023-04-12T20:49:56.077Z,12.75
2023-04-12T20:52:24.247Z,13.07
2023-04-12T20:54:53.374Z,12.73
2023-04-12T20:57:21.321Z,12.96
2023-04-12T20:59:52.582Z,12.97
2023-04-12T21:02:21.159Z,12.65
2023-04-12T21:04:49.301Z,13.03
2023-04-12T21:07:18.139Z,12.89
2023-04-12T21:09:46.048Z,13.03
2023-04-12T21:12:13.930Z,12.76
2023-04-12T21:14:41.789Z,12.75
2023-04-12T21:17:10.984Z,12.84
2023-04-12T21:19:40.992Z,13.08
2023-04-12T21:22:09.346Z,13.03
2023-04-12T21:24:38.886Z,13.06
2023-04-12T21:27:08.371Z,12.61
2023-04-12T21:29:40.922Z,12.76
2023-04-12T21:32:09.746Z,12.71
2023-04-12T21:34:39.223Z,12.85
2023-04-12T21:37:07.104Z,12.46
2023-04-12T21:39:34.967Z,12.46
2023-04-12T21:42:03.196Z,12.76
2023-04-12T21:44:31.999Z,12.43
2023-04-12T21:46:59.850Z,12.95
2023-04-12T21:49:29.955Z,12.72
2023-04-12T21:51:59.415Z,12.53
2023-04-12T21:54:28.912Z,12.83
2023-04-12T21:56:57.377Z,12.98
2023-04-12T21:59:26.659Z,12.92
2023-04-12T22:01:54.578Z,12.69
2023-04-12T22:04:22.552Z,12.85
2023-04-12T22:06:51.549Z,12.88
2023-04-12T22:09:20.787Z,12.57
2023-04-12T22:11:49.113Z,12.81
2023-04-12T22:14:17.038Z,12.68
2023-04-12T22:16:45.239Z,12.66
2023-04-12T22:19:13.263Z,12.67
2023-04-12T22:21:41.591Z,12.60
2023-04-12T22:24:10.079Z,12.45
2023-04-12T22:26:39.310Z,12.80
2023-04-12T22:29:07.224Z,12.75
2023-04-12T22:31:35.556Z,12.80
2023-04-12T22:34:04.587Z,12.95
2023-04-12T22:36:37.259Z,12.78
2023-04-12T22:39:05.849Z,12.95
2023-04-12T22:41:33.944Z,12.94
2023-04-12T22:44:03.422Z,12.92
2023-04-12T22:46:32.286Z,12.65
2023-04-12T22:49:01.522Z,12.75
2023-04-12T22:51:29.913Z,12.86
2023-04-12T22:53:58.132Z,12.81
2023-04-12T22:56:27.130Z,12.85
2023-04-12T22:58:55.713Z,12.87
2023-04-12T23:01:25.244Z,12.75
2023-04-12T23:03:54.160Z,12.50
2023-04-12T23:06:22.122Z,12.55
2023-04-12T23:08:49.963Z,12.71
2023-04-12T23:11:17.862Z,12.62
2023-04-12T23:13:45.877Z,12.60
2023-04-12T23:16:13.833Z,12.51
2023-04-12T23:18:45.019Z,12.83
2023-04-12T23:21:13.162Z,12.89
2023-04-12T23:23:41.559Z,12.69
2023-04-12T23:26:10.742Z,12.76
2023-04-12T23:28:40.299Z,12.53
2023-04-12T23:31:09.922Z,12.57
2023-04-12T23:33:38.766Z,12.40
2023-04-12T23:36:10.107Z,12.57
2023-04-12T23:38:38.809Z,12.33
2023-04-12T23:41:09.080Z,12.61
2023-04-12T23:43:37.232Z,12.63
2023-04-12T23:46:05.712Z,12.48
2023-04-12T23:48:33.932Z,12.60
2023-04-12T23:51:02.022Z,12.64
2023-04-12T23:53:31.560Z,12.42
2023-04-12T23:55:59.700Z,12.65
2023-04-12T23:58:27.819Z,12.61
